createdAt,value
2022-12-09T00:01:55.201Z,29.27
2022-12-09T00:04:25.804Z,27.13
2022-12-09T00:06:56.453Z,29.60
2022-12-09T00:09:27.060Z,28.07
2022-12-09T00:11:57.556Z,27.55
2022-12-09T00:14:27.997Z,25.45
2022-12-09T00:16:58.354Z,27.50
2022-12-09T00:19:28.746Z,26.52
2022-12-09T00:21:59.126Z,26.87
2022-12-09T00:24:30.658Z,25.62
2022-12-09T00:27:01.041Z,26.57
2022-12-09T00:29:31.570Z,27.02
2022-12-09T00:32:03.155Z,28.62
2022-12-09T00:34:34.902Z,27.58
2022-12-09T00:37:06.231Z,27.67
2022-12-09T00:39:36.623Z,28.47
2022-12-09T00:42:07.103Z,28.70
2022-12-09T00:44:37.512Z,29.87
2022-12-09T00:47:07.930Z,29.20
2022-12-09T00:49:38.365Z,27.45
2022-12-09T00:52:09.686Z,28.77
2022-12-09T00:54:41.470Z,28.85
2022-12-09T00:57:12.243Z,29.65
2022-12-09T00:59:42.859Z,29.82
2022-12-09T01:02:13.279Z,28.62
2022-12-09T01:04:44.147Z,30.60
2022-12-09T01:07:14.830Z,30.00
2022-12-09T01:09:45.210Z,29.37
2022-12-09T01:12:15.711Z,29.72
2022-12-09T01:14:46.122Z,29.95
2022-12-09T01:17:16.439Z,28.90
2022-12-09T01:19:47.156Z,29.10
2022-12-09T01:22:19.639Z,28.05
2022-12-09T01:24:51.866Z,27.80
2022-12-09T01:27:22.690Z,27.85
2022-12-09T01:29:53.242Z,29.37
2022-12-09T01:32:23.673Z,29.80
2022-12-09T01:34:54.253Z,29.37
2022-12-09T01:37:24.909Z,30.15
2022-12-09T01:39:55.814Z,28.45
2022-12-09T01:42:27.833Z,29.65
2022-12-09T01:45:24.902Z,29.07
2022-12-09T01:48:01.603Z,30.00
2022-12-09T01:50:35.009Z,29.32
2022-12-09T01:53:06.776Z,29.02
2022-12-09T01:55:38.114Z,29.40
2022-12-09T01:58:08.777Z,27.35
2022-12-09T02:00:39.925Z,29.55
2022-12-09T02:03:11.903Z,28.15
2022-12-09T02:05:43.348Z,29.32
2022-12-09T02:08:16.565Z,30.10
2022-12-09T02:10:53.308Z,28.62
2022-12-09T02:13:35.825Z,29.02
2022-12-09T02:16:09.535Z,28.25
2022-12-09T02:18:57.776Z,28.20
2022-12-09T02:21:40.523Z,27.67
2022-12-09T02:24:22.962Z,27.07
2022-12-09T02:26:59.337Z,28.05
2022-12-09T02:29:44.606Z,28.47
2022-12-09T02:32:24.429Z,28.38
2022-12-09T02:35:00.896Z,29.32
2022-12-09T02:37:34.367Z,29.20
2022-12-09T02:40:14.268Z,28.70
2022-12-09T02:42:47.239Z,29.15
2022-12-09T02:45:20.230Z,28.15
2022-12-09T02:47:53.903Z,29.18
2022-12-09T02:50:27.388Z,29.07
2022-12-09T02:53:00.698Z,28.42
2022-12-09T02:55:32.906Z,28.57
2022-12-09T02:58:04.243Z,27.87
2022-12-09T03:00:34.989Z,27.90
2022-12-09T03:03:09.986Z,27.73
2022-12-09T03:11:10.874Z,30.23
2022-12-09T03:13:53.441Z,30.68
2022-12-09T03:16:42.599Z,31.17
2022-12-09T03:19:30.663Z,30.90
2022-12-09T03:22:04.198Z,30.77
2022-12-09T03:24:59.986Z,27.80
2022-12-09T03:27:33.708Z,26.52
2022-12-09T03:30:07.604Z,25.72
2022-12-09T03:32:42.272Z,27.55
2022-12-09T03:35:18.368Z,26.02
2022-12-09T03:37:51.822Z,25.72
2022-12-09T03:40:25.675Z,25.70
2022-12-09T03:43:14.626Z,26.68
2022-12-09T03:45:45.173Z,26.60
2022-12-09T03:48:17.185Z,26.87
2022-12-09T03:51:05.701Z,27.35
2022-12-09T03:53:41.574Z,24.32
2022-12-09T03:56:24.250Z,22.27
2022-12-09T03:58:57.191Z,23.05
2022-12-09T04:01:29.701Z,24.37
2022-12-09T04:04:00.842Z,23.18
2022-12-09T04:06:31.657Z,24.07
2022-12-09T04:09:03.168Z,23.30
2022-12-09T04:11:35.029Z,24.65
2022-12-09T04:14:08.120Z,23.25
2022-12-09T04:16:38.235Z,23.20
2022-12-09T04:19:09.031Z,22.55
2022-12-09T04:21:39.886Z,19.65
2022-12-09T04:24:11.754Z,19.67
2022-12-09T04:26:42.498Z,19.85
2022-12-09T04:29:14.343Z,19.32
2022-12-09T04:31:44.918Z,19.00
2022-12-09T04:34:15.532Z,20.08
2022-12-09T04:36:46.208Z,20.08
2022-12-09T04:39:17.029Z,20.02
2022-12-09T04:41:47.697Z,19.02
2022-12-09T04:44:18.173Z,18.57
2022-12-09T04:46:50.070Z,18.50
2022-12-09T04:49:20.599Z,18.87
2022-12-09T04:51:51.626Z,18.82
2022-12-09T04:54:22.349Z,19.48
2022-12-09T04:56:53.362Z,19.02
2022-12-09T04:59:24.430Z,18.07
2022-12-09T05:01:54.913Z,19.25
2022-12-09T05:04:25.982Z,17.55
2022-12-09T05:06:57.158Z,15.48
2022-12-09T05:09:29.532Z,16.82
2022-12-09T05:12:01.727Z,17.17
2022-12-09T05:14:32.453Z,18.85
2022-12-09T05:17:04.558Z,20.15
2022-12-09T05:19:35.127Z,19.20
2022-12-09T05:22:06.485Z,19.25
2022-12-09T05:24:37.108Z,19.75
2022-12-09T05:27:07.591Z,21.23
2022-12-09T05:29:38.055Z,20.50
2022-12-09T05:32:10.483Z,20.70
2022-12-09T05:34:41.390Z,21.52
2022-12-09T05:37:15.407Z,22.55
2022-12-09T05:39:45.991Z,23.57
2022-12-09T05:42:17.300Z,23.92
2022-12-09T05:44:48.237Z,25.08
2022-12-09T05:47:20.165Z,25.72
2022-12-09T05:49:51.145Z,26.55
2022-12-09T05:52:21.757Z,26.15
2022-12-09T05:54:52.611Z,26.17
2022-12-09T05:57:23.572Z,27.30
2022-12-09T05:59:55.823Z,26.15
2022-12-09T06:02:26.459Z,27.52
2022-12-09T06:04:58.011Z,27.73
2022-12-09T06:07:28.823Z,28.25
2022-12-09T06:10:00.214Z,30.20
2022-12-09T06:12:31.078Z,35.00
2022-12-09T06:15:02.106Z,34.90
2022-12-09T06:17:32.875Z,34.13
2022-12-09T06:20:04.075Z,34.43
2022-12-09T06:22:36.412Z,35.03
2022-12-09T06:25:07.628Z,31.50
2022-12-09T06:27:39.012Z,28.98
2022-12-09T06:30:10.699Z,30.25
2022-12-09T06:32:41.634Z,29.87
2022-12-09T06:35:12.643Z,30.25
2022-12-09T06:37:45.400Z,29.30
2022-12-09T06:40:17.189Z,29.63
2022-12-09T06:42:47.611Z,30.15
2022-12-09T06:45:21.876Z,29.85
2022-12-09T06:47:52.470Z,29.42
2022-12-09T06:50:23.716Z,29.60
2022-12-09T06:52:54.516Z,27.75
2022-12-09T06:55:26.803Z,29.75
2022-12-09T06:58:00.463Z,26.70
2022-12-09T07:00:32.759Z,29.60
2022-12-09T07:03:04.092Z,30.77
2022-12-09T07:05:35.516Z,29.55
2022-12-09T07:08:06.976Z,30.12
2022-12-09T07:10:38.541Z,31.05
2022-12-09T07:13:09.176Z,31.20
2022-12-09T07:15:39.796Z,32.03
2022-12-09T07:18:11.145Z,31.30
2022-12-09T07:20:41.767Z,31.12
2022-12-09T07:23:14.433Z,29.72
2022-12-09T07:25:45.332Z,30.37
2022-12-09T07:28:16.260Z,28.45
2022-12-09T07:30:46.869Z,29.57
2022-12-09T07:33:19.514Z,28.35
2022-12-09T07:35:50.184Z,29.05
2022-12-09T07:38:20.796Z,29.85
2022-12-09T07:40:51.578Z,30.72
2022-12-09T07:43:22.523Z,31.27
2022-12-09T07:45:53.618Z,29.82
2022-12-09T07:48:24.692Z,27.67
2022-12-09T07:50:55.197Z,28.07
2022-12-09T07:53:27.153Z,26.15
2022-12-09T07:55:59.775Z,27.10
2022-12-09T07:58:30.658Z,24.70
2022-12-09T08:01:10.209Z,24.95
2022-12-09T08:03:42.570Z,25.10
2022-12-09T08:06:16.151Z,25.77
2022-12-09T08:08:47.321Z,24.57
2022-12-09T08:11:21.478Z,24.92
2022-12-09T08:13:53.227Z,24.95
2022-12-09T08:16:24.266Z,25.43
2022-12-09T08:18:57.312Z,23.80
2022-12-09T08:21:31.348Z,22.42
2022-12-09T08:24:06.028Z,22.07
2022-12-09T08:26:40.224Z,24.75
2022-12-09T08:29:13.447Z,21.20
2022-12-09T08:31:45.654Z,22.48
2022-12-09T08:34:17.024Z,22.75
2022-12-09T08:36:47.749Z,22.25
2022-12-09T08:39:18.319Z,21.73
2022-12-09T08:41:49.060Z,23.67
2022-12-09T08:44:22.207Z,22.90
2022-12-09T08:46:54.010Z,22.07
2022-12-09T08:49:25.224Z,23.55
2022-12-09T08:51:56.211Z,24.27
2022-12-09T08:54:28.770Z,24.75
2022-12-09T08:57:00.479Z,24.00
2022-12-09T08:59:31.001Z,23.67
2022-12-09T09:02:02.975Z,24.67
2022-12-09T09:04:35.012Z,26.30
2022-12-09T09:07:07.362Z,24.32
2022-12-09T09:09:38.264Z,22.87
2022-12-09T09:12:09.564Z,23.67
2022-12-09T09:14:40.502Z,27.98
2022-12-09T09:17:11.283Z,31.33
2022-12-09T09:19:42.559Z,31.05
2022-12-09T09:22:13.184Z,28.95
2022-12-09T09:24:44.334Z,25.17
2022-12-09T09:27:14.871Z,26.27
2022-12-09T09:29:45.206Z,26.68
2022-12-09T09:32:17.184Z,28.98
2022-12-09T09:34:50.771Z,29.70
2022-12-09T09:37:22.089Z,36.25
2022-12-09T09:39:53.397Z,35.40
2022-12-09T09:42:27.143Z,32.95
2022-12-09T09:44:59.600Z,33.75
2022-12-09T09:47:38.234Z,33.65
2022-12-09T09:52:35.754Z,30.80
2022-12-09T09:55:19.018Z,32.58
2022-12-09T09:57:55.666Z,32.88
2022-12-09T10:00:31.927Z,31.40
2022-12-09T10:03:06.857Z,32.33
2022-12-09T10:05:41.128Z,33.55
2022-12-09T10:08:30.184Z,31.42
2022-12-09T10:11:10.170Z,32.60
2022-12-09T10:14:08.988Z,29.90
2022-12-09T10:16:58.424Z,31.48
2022-12-09T10:19:38.578Z,29.92
2022-12-09T10:22:21.252Z,29.10
2022-12-09T10:24:55.423Z,30.08
2022-12-09T10:27:32.866Z,30.52
2022-12-09T10:30:10.328Z,30.70
2022-12-09T10:32:41.587Z,31.15
2022-12-09T10:35:20.722Z,33.28
2022-12-09T10:37:53.569Z,35.35
2022-12-09T10:40:27.706Z,35.73
2022-12-09T10:43:18.457Z,34.83
2022-12-09T10:48:34.127Z,36.40
2022-12-09T10:51:23.068Z,36.98
2022-12-09T10:54:04.350Z,36.73
2022-12-09T10:56:38.025Z,35.63
2022-12-09T10:59:21.090Z,35.70
2022-12-09T11:02:13.049Z,34.65
2022-12-09T11:04:46.145Z,35.73
2022-12-09T11:07:20.148Z,35.28
2022-12-09T11:09:54.435Z,36.13
2022-12-09T11:12:40.415Z,35.80
2022-12-09T11:15:15.507Z,34.80
2022-12-09T11:18:01.486Z,35.35
2022-12-09T11:20:35.571Z,36.30
2022-12-09T11:23:16.133Z,36.03
2022-12-09T11:25:58.737Z,34.75
2022-12-09T11:28:33.655Z,35.35
2022-12-09T11:31:28.973Z,33.70
2022-12-09T11:33:44.919Z,34.25
2022-12-09T11:36:32.062Z,33.75
2022-12-09T11:39:22.784Z,33.42
2022-12-09T11:42:18.669Z,33.25
2022-12-09T11:48:20.324Z,34.17
2022-12-09T11:50:29.317Z,34.45
2022-12-09T11:53:11.453Z,33.85
2022-12-09T11:55:51.157Z,35.55
2022-12-09T11:58:24.601Z,33.98
2022-12-09T12:01:00.987Z,34.43
2022-12-09T12:03:49.364Z,34.90
2022-12-09T12:06:25.666Z,32.80
2022-12-09T12:09:08.052Z,33.18
2022-12-09T12:11:41.405Z,34.35
2022-12-09T12:14:17.858Z,31.65
2022-12-09T12:17:21.587Z,33.13
2022-12-09T12:19:53.940Z,32.98
2022-12-09T12:23:00.885Z,34.53
2022-12-09T12:25:49.482Z,32.15
2022-12-09T12:28:37.762Z,31.23
2022-12-09T12:31:31.284Z,32.67
2022-12-09T12:34:26.981Z,33.38
2022-12-09T12:37:21.037Z,31.27
2022-12-09T12:40:19.658Z,32.20
2022-12-09T12:43:08.456Z,31.85
2022-12-09T12:46:09.878Z,32.65
2022-12-09T12:48:51.942Z,31.30
2022-12-09T12:51:43.420Z,31.60
2022-12-09T12:54:37.949Z,30.25
2022-12-09T12:57:41.450Z,31.73
2022-12-09T13:00:19.362Z,31.80
2022-12-09T13:03:07.489Z,32.93
2022-12-09T13:08:35.751Z,32.55
2022-12-09T13:11:20.539Z,31.55
2022-12-09T13:13:57.017Z,32.80
2022-12-09T13:16:36.156Z,33.15
2022-12-09T13:19:27.058Z,31.15
2022-12-09T13:21:58.586Z,31.82
2022-12-09T13:24:43.814Z,32.23
2022-12-09T13:27:38.397Z,31.07
2022-12-09T13:30:20.893Z,32.93
2022-12-09T13:33:06.080Z,31.25
2022-12-09T13:35:42.327Z,30.10
2022-12-09T13:38:27.727Z,33.35
2022-12-09T13:40:58.243Z,40.45
2022-12-09T13:43:32.661Z,34.50
2022-12-09T13:46:03.688Z,32.15
2022-12-09T13:48:39.531Z,29.75
2022-12-09T13:51:10.514Z,29.87
2022-12-09T13:54:02.358Z,31.23
2022-12-09T13:56:35.755Z,30.65
2022-12-09T13:59:31.831Z,30.32
2022-12-09T14:02:24.839Z,30.32
2022-12-09T14:05:10.295Z,29.60
2022-12-09T14:07:52.510Z,29.37
2022-12-09T14:10:52.481Z,28.12
2022-12-09T14:13:32.497Z,29.32
2022-12-09T14:16:17.778Z,29.57
2022-12-09T14:18:48.349Z,30.23
2022-12-09T14:21:24.874Z,28.52
2022-12-09T14:24:15.059Z,29.00
2022-12-09T14:26:57.365Z,27.30
2022-12-09T14:29:47.567Z,27.60
2022-12-09T14:32:24.139Z,25.48
2022-12-09T14:35:13.770Z,26.02
2022-12-09T14:38:07.665Z,25.62
2022-12-09T14:40:57.789Z,26.17
2022-12-09T14:43:50.158Z,24.30
2022-12-09T14:46:36.034Z,24.05
2022-12-09T14:49:18.785Z,26.85
2022-12-09T14:52:08.560Z,26.95
2022-12-09T14:54:42.088Z,30.10
2022-12-09T14:57:24.916Z,30.32
2022-12-09T14:59:58.018Z,30.80
2022-12-09T15:02:31.182Z,33.67
2022-12-09T15:05:03.653Z,31.40
2022-12-09T15:07:35.461Z,29.30
2022-12-09T15:10:09.092Z,30.17
2022-12-09T15:12:42.677Z,27.13
2022-12-09T15:15:28.317Z,25.08
2022-12-09T15:18:07.599Z,26.02
2022-12-09T15:20:40.869Z,25.02
2022-12-09T15:23:33.133Z,25.43
2022-12-09T15:26:07.624Z,25.55
2022-12-09T15:28:39.235Z,27.22
2022-12-09T15:31:21.684Z,26.45
2022-12-09T15:33:54.909Z,26.80
2022-12-09T15:36:28.526Z,25.85
2022-12-09T15:39:01.986Z,25.00
2022-12-09T15:41:59.354Z,25.90
2022-12-09T15:44:33.237Z,24.87
2022-12-09T15:47:10.135Z,25.68
2022-12-09T15:49:41.946Z,26.10
2022-12-09T15:52:14.962Z,29.00
2022-12-09T15:54:46.845Z,30.45
2022-12-09T15:57:19.846Z,30.68
2022-12-09T15:59:55.859Z,34.10
2022-12-09T16:02:31.637Z,33.55
2022-12-09T16:05:06.696Z,33.40
2022-12-09T16:07:38.043Z,31.80
2022-12-09T16:10:17.969Z,32.13
2022-12-09T16:12:48.455Z,30.82
2022-12-09T16:15:21.891Z,29.90
2022-12-09T16:17:57.354Z,29.02
2022-12-09T16:20:42.534Z,28.32
2022-12-09T16:23:23.373Z,28.57
2022-12-09T16:25:55.323Z,26.60
2022-12-09T16:28:27.533Z,25.68
2022-12-09T16:31:01.070Z,27.37
2022-12-09T16:33:40.156Z,27.58
2022-12-09T16:36:13.547Z,26.75
2022-12-09T16:38:45.796Z,28.87
2022-12-09T16:41:17.413Z,27.95
2022-12-09T16:43:57.014Z,28.57
2022-12-09T16:46:38.763Z,28.15
2022-12-09T16:49:10.187Z,28.10
2022-12-09T16:51:40.991Z,28.02
2022-12-09T16:54:20.686Z,30.30
2022-12-09T16:56:49.097Z,29.65
2022-12-09T16:59:19.549Z,29.37
2022-12-09T17:01:50.369Z,28.83
2022-12-09T17:04:29.012Z,28.83
2022-12-09T17:07:00.448Z,27.42
2022-12-09T17:09:30.994Z,26.82
2022-12-09T17:12:01.550Z,28.85
2022-12-09T17:14:32.620Z,29.00
2022-12-09T17:17:03.059Z,31.05
2022-12-09T17:19:34.155Z,29.90
2022-12-09T17:22:05.121Z,31.90
2022-12-09T17:24:35.620Z,30.05
2022-12-09T17:27:06.035Z,32.17
2022-12-09T17:29:37.545Z,31.50
2022-12-09T17:32:08.202Z,30.77
2022-12-09T17:34:39.258Z,30.43
2022-12-09T17:37:09.758Z,32.60
2022-12-09T17:39:40.173Z,33.30
2022-12-09T17:42:10.754Z,31.85
2022-12-09T17:44:41.267Z,31.55
2022-12-09T17:47:11.715Z,31.80
2022-12-09T17:49:43.384Z,31.25
2022-12-09T17:52:14.894Z,31.15
2022-12-09T17:54:47.839Z,33.33
2022-12-09T17:57:18.341Z,34.13
2022-12-09T17:59:48.888Z,32.80
2022-12-09T18:02:20.869Z,32.30
2022-12-09T18:04:51.554Z,32.88
2022-12-09T18:07:21.991Z,34.05
2022-12-09T18:09:54.612Z,32.20
2022-12-09T18:12:25.224Z,34.90
2022-12-09T18:14:55.639Z,33.63
2022-12-09T18:17:26.441Z,33.40
2022-12-09T18:19:57.922Z,34.08
2022-12-09T18:22:28.415Z,35.85
2022-12-09T18:24:58.884Z,33.58
2022-12-09T18:27:29.309Z,34.85
2022-12-09T18:29:59.760Z,32.65
2022-12-09T18:32:36.008Z,32.50
2022-12-09T18:35:04.198Z,33.85
2022-12-09T18:37:34.595Z,32.98
2022-12-09T18:40:05.932Z,32.80
2022-12-09T18:42:36.847Z,33.78
2022-12-09T18:45:07.972Z,32.00
2022-12-09T18:47:38.363Z,32.48
2022-12-09T18:50:10.855Z,31.27
2022-12-09T18:52:42.150Z,29.60
2022-12-09T18:55:13.799Z,30.27
2022-12-09T18:57:44.310Z,31.07
2022-12-09T19:00:15.548Z,32.45
2022-12-09T19:02:46.002Z,34.75
2022-12-09T19:05:16.648Z,33.98
2022-12-09T19:07:47.511Z,35.95
2022-12-09T19:10:19.967Z,36.55
2022-12-09T19:12:56.341Z,34.40
2022-12-09T19:15:22.694Z,33.18
2022-12-09T19:17:53.289Z,33.90
2022-12-09T19:20:26.651Z,30.80
2022-12-09T19:22:58.631Z,30.72
2022-12-09T19:25:29.113Z,30.80
2022-12-09T19:27:59.615Z,31.77
2022-12-09T19:30:31.001Z,31.95
2022-12-09T19:33:02.512Z,31.35
2022-12-09T19:35:32.975Z,30.80
2022-12-09T19:38:03.458Z,30.88
2022-12-09T19:40:35.170Z,31.07
2022-12-09T19:43:05.699Z,31.33
2022-12-09T19:45:36.228Z,32.20
2022-12-09T19:48:07.295Z,32.67
2022-12-09T19:50:37.788Z,32.53
2022-12-09T19:53:08.251Z,31.77
2022-12-09T19:55:39.355Z,31.73
2022-12-09T19:58:11.132Z,31.23
2022-12-09T20:00:41.963Z,30.75
2022-12-09T20:03:12.400Z,31.90
2022-12-09T20:05:51.845Z,31.35
2022-12-09T20:08:23.562Z,32.42
2022-12-09T20:10:54.233Z,32.48
2022-12-09T20:13:30.175Z,32.28
2022-12-09T20:15:57.198Z,31.75
2022-12-09T20:18:27.667Z,32.05
2022-12-09T20:21:03.084Z,29.37
2022-12-09T20:26:12.024Z,29.75
2022-12-09T20:28:44.318Z,28.30
2022-12-09T20:31:24.836Z,27.27
2022-12-09T20:34:01.978Z,28.92
2022-12-09T20:36:35.908Z,26.97
2022-12-09T20:39:12.672Z,27.45
2022-12-09T20:41:44.607Z,24.85
2022-12-09T20:44:16.469Z,24.27
2022-12-09T20:46:49.317Z,24.60
2022-12-09T20:49:23.176Z,24.95
2022-12-09T20:51:54.534Z,23.55
2022-12-09T20:54:25.263Z,24.12
2022-12-09T20:56:55.970Z,25.62
2022-12-09T20:59:26.497Z,24.80
2022-12-09T21:01:57.727Z,24.05
2022-12-09T21:04:29.948Z,23.07
2022-12-09T21:07:00.491Z,23.38
2022-12-09T21:09:30.954Z,23.35
2022-12-09T21:12:01.671Z,23.87
2022-12-09T21:14:34.059Z,24.12
2022-12-09T21:17:04.752Z,22.37
2022-12-09T21:19:35.516Z,24.18
2022-12-09T21:22:06.111Z,22.82
2022-12-09T21:24:38.531Z,23.73
2022-12-09T21:27:10.109Z,22.52
2022-12-09T21:29:41.746Z,25.37
2022-12-09T21:32:12.332Z,24.20
2022-12-09T21:34:42.907Z,25.00
2022-12-09T21:37:13.548Z,25.05
2022-12-09T21:39:47.936Z,26.80
2022-12-09T21:42:19.469Z,27.05
2022-12-09T21:44:51.407Z,25.82
2022-12-09T21:47:22.118Z,25.65
2022-12-09T21:49:53.715Z,25.52
2022-12-09T21:52:35.711Z,24.98
2022-12-09T21:55:11.834Z,24.63
2022-12-09T21:57:58.689Z,22.58
2022-12-09T22:01:01.068Z,23.22
2022-12-09T22:03:31.702Z,23.30
2022-12-09T22:06:02.245Z,22.67
2022-12-09T22:08:33.851Z,22.25
2022-12-09T22:11:13.088Z,23.27
2022-12-09T22:13:45.055Z,22.02
2022-12-09T22:16:18.773Z,22.50
2022-12-09T22:18:50.402Z,21.93
2022-12-09T22:21:25.298Z,22.50
2022-12-09T22:23:57.101Z,22.60
2022-12-09T22:26:28.521Z,22.32
2022-12-09T22:29:01.955Z,23.70
2022-12-09T22:31:36.524Z,22.58
2022-12-09T22:34:09.853Z,23.83
2022-12-09T22:36:41.284Z,23.92
2022-12-09T22:39:18.137Z,22.48
2022-12-09T22:41:49.090Z,22.77
2022-12-09T22:44:20.840Z,24.52
2022-12-09T22:46:51.308Z,23.42
2022-12-09T22:49:21.818Z,24.25
2022-12-09T22:51:55.176Z,23.40
2022-12-09T22:54:24.572Z,24.35
2022-12-09T22:56:55.031Z,24.90
2022-12-09T22:59:26.845Z,25.20
2022-12-09T23:01:57.539Z,24.80
2022-12-09T23:04:28.704Z,24.35
2022-12-09T23:06:59.296Z,24.12
2022-12-09T23:09:29.961Z,23.55
2022-12-09T23:12:00.533Z,22.90
2022-12-09T23:14:32.040Z,22.80
2022-12-09T23:17:02.533Z,22.32
2022-12-09T23:19:33.067Z,21.23
2022-12-09T23:22:03.644Z,21.73
2022-12-09T23:24:34.258Z,21.33
2022-12-09T23:27:04.813Z,21.07
2022-12-09T23:29:35.601Z,23.55
2022-12-09T23:32:06.359Z,23.92
2022-12-09T23:34:36.817Z,22.27
2022-12-09T23:37:07.390Z,21.60
2022-12-09T23:39:37.789Z,20.90
2022-12-09T23:42:09.274Z,20.68
2022-12-09T23:44:39.919Z,20.70
2022-12-09T23:47:11.499Z,20.23
2022-12-09T23:49:42.989Z,19.12
2022-12-09T23:52:14.808Z,20.50
2022-12-09T23:54:45.281Z,21.12
2022-12-09T23:57:15.692Z,21.33
2022-12-09T23:59:47.559Z,21.07
